sensor_id;sensor_type;location;lat;lon;timestamp;pressure;altitude;pressure_sealevel;temperature;humidity
11712;BME280;5912;51.034;6.984;2023-04-07T00:01:52;56478.53;;;-142.13;77.30
11712;BME280;5912;51.034;6.984;2023-04-07T00:04:17;56468.50;;;-142.13;77.39
11712;BME280;5912;51.034;6.984;2023-04-07T00:06:43;56448.47;;;-142.13;77.46
11712;BME280;5912;51.034;6.984;2023-04-07T00:09:09;56480.53;;;-142.13;77.44
11712;BME280;5912;51.034;6.984;2023-04-07T00:11:35;56460.50;;;-142.13;77.77
11712;BME280;5912;51.034;6.984;2023-04-07T00:14:00;56472.50;;;-142.13;77.54
11712;BME280;5912;51.034;6.984;2023-04-07T00:16:26;56472.50;;;-142.13;77.42
11712;BME280;5912;51.034;6.984;2023-04-07T00:18:51;56462.50;;;-142.13;77.51
11712;BME280;5912;51.034;6.984;2023-04-07T00:21:17;56450.47;;;-142.13;77.66
11712;BME280;5912;51.034;6.984;2023-04-07T00:23:42;56466.50;;;-142.13;77.34
11712;BME280;5912;51.034;6.984;2023-04-07T00:26:07;56480.53;;;-142.13;77.76
11712;BME280;5912;51.034;6.984;2023-04-07T00:28:33;56460.50;;;-142.13;77.36
11712;BME280;5912;51.034;6.984;2023-04-07T00:30:58;56498.56;;;-142.13;77.90
11712;BME280;5912;51.034;6.984;2023-04-07T00:33:23;56448.47;;;-142.13;77.62
11712;BME280;5912;51.034;6.984;2023-04-07T00:35:48;56466.50;;;-142.13;77.63
11712;BME280;5912;51.034;6.984;2023-04-07T00:38:14;56504.56;;;-142.13;77.94
11712;BME280;5912;51.034;6.984;2023-04-07T00:40:39;56458.50;;;-142.13;78.12
11712;BME280;5912;51.034;6.984;2023-04-07T00:43:05;56468.50;;;-142.13;77.92
11712;BME280;5912;51.034;6.984;2023-04-07T00:45:30;56556.66;;;-142.13;77.91
11712;BME280;5912;51.034;6.984;2023-04-07T00:47:56;56446.47;;;-142.13;78.16
11712;BME280;5912;51.034;6.984;2023-04-07T00:50:22;56472.50;;;-142.13;78.06
11712;BME280;5912;51.034;6.984;2023-04-07T00:52:47;56470.50;;;-142.13;78.11
11712;BME280;5912;51.034;6.984;2023-04-07T00:55:13;56486.53;;;-142.13;78.27
11712;BME280;5912;51.034;6.984;2023-04-07T00:57:38;56468.50;;;-142.13;78.14
11712;BME280;5912;51.034;6.984;2023-04-07T01:00:04;56456.50;;;-142.13;78.21
11712;BME280;5912;51.034;6.984;2023-04-07T01:02:55;56484.53;;;-142.13;78.18
11712;BME280;5912;51.034;6.984;2023-04-07T01:08:20;56452.47;;;-142.13;78.36
11712;BME280;5912;51.034;6.984;2023-04-07T01:10:52;56474.53;;;-142.13;78.50
11712;BME280;5912;51.034;6.984;2023-04-07T01:13:30;56504.56;;;-142.13;78.56
11712;BME280;5912;51.034;6.984;2023-04-07T01:16:01;56492.53;;;-142.13;78.44
11712;BME280;5912;51.034;6.984;2023-04-07T01:18:30;56468.50;;;-142.13;78.21
11712;BME280;5912;51.034;6.984;2023-04-07T01:21:02;56478.53;;;-142.13;78.67
11712;BME280;5912;51.034;6.984;2023-04-07T01:23:58;56514.59;;;-142.13;78.82
11712;BME280;5912;51.034;6.984;2023-04-07T01:26:27;56486.53;;;-142.13;78.65
11712;BME280;5912;51.034;6.984;2023-04-07T01:31:45;56472.50;;;-142.13;79.01
11712;BME280;5912;51.034;6.984;2023-04-07T01:34:12;56452.47;;;-142.13;78.90
11712;BME280;5912;51.034;6.984;2023-04-07T01:36:40;56494.56;;;-142.13;78.75
11712;BME280;5912;51.034;6.984;2023-04-07T01:39:06;56462.50;;;-142.13;78.73
11712;BME280;5912;51.034;6.984;2023-04-07T01:41:33;56464.50;;;-142.13;78.39
11712;BME280;5912;51.034;6.984;2023-04-07T01:44:00;56436.47;;;-142.13;78.51
11712;BME280;5912;51.034;6.984;2023-04-07T01:46:26;56456.50;;;-142.13;78.74
11712;BME280;5912;51.034;6.984;2023-04-07T01:48:51;56448.47;;;-142.13;78.48
11712;BME280;5912;51.034;6.984;2023-04-07T01:51:19;56480.53;;;-142.13;78.47
11712;BME280;5912;51.034;6.984;2023-04-07T01:53:46;56464.50;;;-142.13;78.63
11712;BME280;5912;51.034;6.984;2023-04-07T01:56:12;56438.47;;;-142.13;78.65
11712;BME280;5912;51.034;6.984;2023-04-07T01:58:38;56470.50;;;-142.13;78.89
11712;BME280;5912;51.034;6.984;2023-04-07T02:01:03;56472.50;;;-142.13;78.89
11712;BME280;5912;51.034;6.984;2023-04-07T02:03:34;56504.56;;;-142.13;78.58
11712;BME280;5912;51.034;6.984;2023-04-07T02:06:04;56460.50;;;-142.13;78.67
11712;BME280;5912;51.034;6.984;2023-04-07T02:08:32;56484.53;;;-142.13;78.81
11712;BME280;5912;51.034;6.984;2023-04-07T02:10:59;56492.53;;;-142.13;78.58
11712;BME280;5912;51.034;6.984;2023-04-07T02:13:28;56482.53;;;-142.13;78.44
11712;BME280;5912;51.034;6.984;2023-04-07T02:15:54;56460.50;;;-142.13;79.04
11712;BME280;5912;51.034;6.984;2023-04-07T02:18:21;56452.47;;;-142.13;79.07
11712;BME280;5912;51.034;6.984;2023-04-07T02:20:47;56484.53;;;-142.13;78.83
11712;BME280;5912;51.034;6.984;2023-04-07T02:23:14;56462.50;;;-142.13;78.69
11712;BME280;5912;51.034;6.984;2023-04-07T02:25:40;56488.53;;;-142.13;78.69
11712;BME280;5912;51.034;6.984;2023-04-07T02:28:05;56450.47;;;-142.13;79.06
11712;BME280;5912;51.034;6.984;2023-04-07T02:30:31;56488.53;;;-142.13;79.25
11712;BME280;5912;51.034;6.984;2023-04-07T02:32:57;56444.47;;;-142.13;78.79
11712;BME280;5912;51.034;6.984;2023-04-07T02:35:23;56496.56;;;-142.13;78.98
11712;BME280;5912;51.034;6.984;2023-04-07T02:37:48;56508.56;;;-142.13;78.90
11712;BME280;5912;51.034;6.984;2023-04-07T02:40:14;56462.50;;;-142.13;79.15
11712;BME280;5912;51.034;6.984;2023-04-07T02:42:40;56510.56;;;-142.13;79.16
11712;BME280;5912;51.034;6.984;2023-04-07T02:45:07;56458.50;;;-142.13;79.18
11712;BME280;5912;51.034;6.984;2023-04-07T02:47:35;56464.50;;;-142.13;78.88
11712;BME280;5912;51.034;6.984;2023-04-07T02:50:00;56466.50;;;-142.13;79.08
11712;BME280;5912;51.034;6.984;2023-04-07T02:52:26;56456.50;;;-142.13;79.26
11712;BME280;5912;51.034;6.984;2023-04-07T02:54:51;56454.47;;;-142.13;78.99
11712;BME280;5912;51.034;6.984;2023-04-07T02:57:17;56404.41;;;-142.13;79.13
11712;BME280;5912;51.034;6.984;2023-04-07T02:59:43;56432.44;;;-142.13;79.21
11712;BME280;5912;51.034;6.984;2023-04-07T03:02:08;56436.47;;;-142.13;79.27
11712;BME280;5912;51.034;6.984;2023-04-07T03:04:33;56456.50;;;-142.13;78.99
11712;BME280;5912;51.034;6.984;2023-04-07T03:06:59;56456.50;;;-142.13;79.44
11712;BME280;5912;51.034;6.984;2023-04-07T03:09:24;56460.50;;;-142.13;79.37
11712;BME280;5912;51.034;6.984;2023-04-07T03:11:50;56452.47;;;-142.13;79.55
11712;BME280;5912;51.034;6.984;2023-04-07T03:14:16;56436.47;;;-142.13;79.38
11712;BME280;5912;51.034;6.984;2023-04-07T03:16:41;56454.47;;;-142.13;79.64
11712;BME280;5912;51.034;6.984;2023-04-07T03:19:07;56480.53;;;-142.13;79.67
11712;BME280;5912;51.034;6.984;2023-04-07T03:21:34;56472.50;;;-142.13;79.80
11712;BME280;5912;51.034;6.984;2023-04-07T03:24:00;56458.50;;;-142.13;79.67
11712;BME280;5912;51.034;6.984;2023-04-07T03:26:25;56448.47;;;-142.13;79.40
11712;BME280;5912;51.034;6.984;2023-04-07T03:28:50;56470.50;;;-142.13;79.34
11712;BME280;5912;51.034;6.984;2023-04-07T03:31:16;56452.47;;;-142.13;79.84
11712;BME280;5912;51.034;6.984;2023-04-07T03:33:41;56468.50;;;-142.13;79.97
11712;BME280;5912;51.034;6.984;2023-04-07T03:36:06;56468.50;;;-142.13;79.93
11712;BME280;5912;51.034;6.984;2023-04-07T03:38:32;56464.50;;;-142.13;79.85
11712;BME280;5912;51.034;6.984;2023-04-07T03:40:57;56464.50;;;-142.13;79.84
11712;BME280;5912;51.034;6.984;2023-04-07T03:43:23;56450.47;;;-142.13;79.79
11712;BME280;5912;51.034;6.984;2023-04-07T03:45:48;56480.53;;;-142.13;79.99
11712;BME280;5912;51.034;6.984;2023-04-07T03:48:13;56496.56;;;-142.13;79.97
11712;BME280;5912;51.034;6.984;2023-04-07T03:50:39;56472.50;;;-142.13;80.12
11712;BME280;5912;51.034;6.984;2023-04-07T03:53:05;56466.50;;;-142.13;79.73
11712;BME280;5912;51.034;6.984;2023-04-07T03:55:32;56436.47;;;-142.13;80.25
11712;BME280;5912;51.034;6.984;2023-04-07T03:57:57;56472.50;;;-142.13;79.83
11712;BME280;5912;51.034;6.984;2023-04-07T04:00:23;56468.50;;;-142.13;79.75
11712;BME280;5912;51.034;6.984;2023-04-07T04:02:48;56448.47;;;-142.13;80.18
11712;BME280;5912;51.034;6.984;2023-04-07T04:05:14;56468.50;;;-142.13;79.50
11712;BME280;5912;51.034;6.984;2023-04-07T04:07:39;56448.47;;;-142.13;79.37
11712;BME280;5912;51.034;6.984;2023-04-07T04:10:05;56480.53;;;-142.13;79.34
11712;BME280;5912;51.034;6.984;2023-04-07T04:12:30;56474.53;;;-142.13;79.53
11712;BME280;5912;51.034;6.984;2023-04-07T04:14:56;56492.53;;;-142.13;79.57
11712;BME280;5912;51.034;6.984;2023-04-07T04:17:21;56484.53;;;-142.13;79.51
11712;BME280;5912;51.034;6.984;2023-04-07T04:19:46;56468.50;;;-142.13;79.38
11712;BME280;5912;51.034;6.984;2023-04-07T04:22:12;56478.53;;;-142.13;79.88
11712;BME280;5912;51.034;6.984;2023-04-07T04:24:37;56480.53;;;-142.13;79.50
11712;BME280;5912;51.034;6.984;2023-04-07T04:27:03;56440.47;;;-142.13;79.56
11712;BME280;5912;51.034;6.984;2023-04-07T04:29:28;56484.53;;;-142.13;79.49
11712;BME280;5912;51.034;6.984;2023-04-07T04:31:53;56486.53;;;-142.13;79.39
11712;BME280;5912;51.034;6.984;2023-04-07T04:34:19;56472.50;;;-142.13;79.48
11712;BME280;5912;51.034;6.984;2023-04-07T04:36:44;56468.50;;;-142.13;79.52
11712;BME280;5912;51.034;6.984;2023-04-07T04:39:09;56468.50;;;-142.13;79.85
11712;BME280;5912;51.034;6.984;2023-04-07T04:41:36;56470.50;;;-142.13;79.55
11712;BME280;5912;51.034;6.984;2023-04-07T04:44:01;56464.50;;;-142.13;79.46
11712;BME280;5912;51.034;6.984;2023-04-07T04:46:26;56460.50;;;-142.13;79.46
11712;BME280;5912;51.034;6.984;2023-04-07T04:48:52;56446.47;;;-142.13;79.85
11712;BME280;5912;51.034;6.984;2023-04-07T04:51:18;56442.47;;;-142.13;79.91
11712;BME280;5912;51.034;6.984;2023-04-07T04:53:43;56472.50;;;-142.13;79.29
11712;BME280;5912;51.034;6.984;2023-04-07T04:56:08;56466.50;;;-142.13;79.47
11712;BME280;5912;51.034;6.984;2023-04-07T04:58:34;56460.50;;;-142.13;79.57
11712;BME280;5912;51.034;6.984;2023-04-07T05:01:00;56444.47;;;-142.13;79.48
11712;BME280;5912;51.034;6.984;2023-04-07T05:03:27;56444.47;;;-142.13;79.68
11712;BME280;5912;51.034;6.984;2023-04-07T05:05:52;56478.53;;;-142.13;79.37
11712;BME280;5912;51.034;6.984;2023-04-07T05:08:18;56470.50;;;-142.13;79.41
11712;BME280;5912;51.034;6.984;2023-04-07T05:10:43;56448.47;;;-142.13;79.27
11712;BME280;5912;51.034;6.984;2023-04-07T05:13:08;56460.50;;;-142.13;79.50
11712;BME280;5912;51.034;6.984;2023-04-07T05:15:34;56442.47;;;-142.13;79.08
11712;BME280;5912;51.034;6.984;2023-04-07T05:17:59;56468.50;;;-142.13;79.52
11712;BME280;5912;51.034;6.984;2023-04-07T05:20:25;56454.47;;;-142.13;79.24
11712;BME280;5912;51.034;6.984;2023-04-07T05:22:50;56458.50;;;-142.13;79.27
11712;BME280;5912;51.034;6.984;2023-04-07T05:25:15;56484.53;;;-142.13;79.57
11712;BME280;5912;51.034;6.984;2023-04-07T05:27:41;56500.56;;;-142.13;79.43
11712;BME280;5912;51.034;6.984;2023-04-07T05:30:06;56492.53;;;-142.13;79.26
11712;BME280;5912;51.034;6.984;2023-04-07T05:32:32;56460.50;;;-142.13;79.10
11712;BME280;5912;51.034;6.984;2023-04-07T05:34:57;56486.53;;;-142.13;79.06
11712;BME280;5912;51.034;6.984;2023-04-07T05:37:22;56472.50;;;-142.13;79.14
11712;BME280;5912;51.034;6.984;2023-04-07T05:39:48;56486.53;;;-142.13;79.35
11712;BME280;5912;51.034;6.984;2023-04-07T05:42:13;56486.53;;;-142.13;79.60
11712;BME280;5912;51.034;6.984;2023-04-07T05:44:39;56466.50;;;-142.13;79.38
11712;BME280;5912;51.034;6.984;2023-04-07T05:47:04;56444.47;;;-142.13;79.57
11712;BME280;5912;51.034;6.984;2023-04-07T05:49:33;56480.53;;;-142.13;79.21
11712;BME280;5912;51.034;6.984;2023-04-07T05:51:59;56482.53;;;-142.13;79.35
11712;BME280;5912;51.034;6.984;2023-04-07T05:54:24;56484.53;;;-142.13;79.23
11712;BME280;5912;51.034;6.984;2023-04-07T05:56:50;56496.56;;;-142.13;79.29
11712;BME280;5912;51.034;6.984;2023-04-07T05:59:15;56472.50;;;-142.13;79.64
11712;BME280;5912;51.034;6.984;2023-04-07T06:01:41;56464.50;;;-142.13;79.36
11712;BME280;5912;51.034;6.984;2023-04-07T06:04:06;56492.53;;;-142.13;79.46
11712;BME280;5912;51.034;6.984;2023-04-07T06:06:32;56464.50;;;-142.13;79.37
11712;BME280;5912;51.034;6.984;2023-04-07T06:08:57;56492.53;;;-142.13;79.61
11712;BME280;5912;51.034;6.984;2023-04-07T06:11:22;56494.56;;;-142.13;79.55
11712;BME280;5912;51.034;6.984;2023-04-07T06:13:48;56448.47;;;-142.13;79.44
11712;BME280;5912;51.034;6.984;2023-04-07T06:16:13;56480.53;;;-142.13;79.26
11712;BME280;5912;51.034;6.984;2023-04-07T06:18:39;56508.56;;;-142.13;79.27
11712;BME280;5912;51.034;6.984;2023-04-07T06:21:04;56464.50;;;-142.13;79.27
11712;BME280;5912;51.034;6.984;2023-04-07T06:23:30;56484.53;;;-142.13;79.48
11712;BME280;5912;51.034;6.984;2023-04-07T06:25:55;56480.53;;;-142.13;79.24
11712;BME280;5912;51.034;6.984;2023-04-07T06:28:21;56464.50;;;-142.13;78.94
11712;BME280;5912;51.034;6.984;2023-04-07T06:30:46;56486.53;;;-142.13;79.32
11712;BME280;5912;51.034;6.984;2023-04-07T06:33:30;56488.53;;;-142.13;79.25
11712;BME280;5912;51.034;6.984;2023-04-07T06:35:55;56474.53;;;-142.13;78.88
11712;BME280;5912;51.034;6.984;2023-04-07T06:38:21;56478.53;;;-142.13;79.13
11712;BME280;5912;51.034;6.984;2023-04-07T06:40:47;56482.53;;;-142.13;78.99
11712;BME280;5912;51.034;6.984;2023-04-07T06:43:12;56460.50;;;-142.13;78.65
11712;BME280;5912;51.034;6.984;2023-04-07T06:45:37;56454.47;;;-142.13;78.89
11712;BME280;5912;51.034;6.984;2023-04-07T06:48:03;56464.50;;;-142.13;78.65
11712;BME280;5912;51.034;6.984;2023-04-07T06:50:28;56478.53;;;-142.13;79.20
11712;BME280;5912;51.034;6.984;2023-04-07T06:52:53;56460.50;;;-142.13;78.77
11712;BME280;5912;51.034;6.984;2023-04-07T06:55:19;56472.50;;;-142.13;78.95
11712;BME280;5912;51.034;6.984;2023-04-07T06:57:44;56476.53;;;-142.13;78.65
11712;BME280;5912;51.034;6.984;2023-04-07T07:00:10;56462.50;;;-142.13;78.67
11712;BME280;5912;51.034;6.984;2023-04-07T07:02:36;56448.47;;;-142.13;78.98
11712;BME280;5912;51.034;6.984;2023-04-07T07:05:01;56462.50;;;-142.13;78.86
11712;BME280;5912;51.034;6.984;2023-04-07T07:07:28;56494.56;;;-142.13;78.84
11712;BME280;5912;51.034;6.984;2023-04-07T07:09:54;56466.50;;;-142.13;78.38
11712;BME280;5912;51.034;6.984;2023-04-07T07:12:19;56440.47;;;-142.13;78.17
11712;BME280;5912;51.034;6.984;2023-04-07T07:14:44;56462.50;;;-142.13;78.04
11712;BME280;5912;51.034;6.984;2023-04-07T07:17:10;56456.50;;;-142.13;78.18
11712;BME280;5912;51.034;6.984;2023-04-07T07:19:35;56456.50;;;-142.13;78.27
11712;BME280;5912;51.034;6.984;2023-04-07T07:22:01;56470.50;;;-142.13;77.92
11712;BME280;5912;51.034;6.984;2023-04-07T07:24:28;56460.50;;;-142.13;77.67
11712;BME280;5912;51.034;6.984;2023-04-07T07:26:53;56452.47;;;-142.13;77.53
11712;BME280;5912;51.034;6.984;2023-04-07T07:29:19;56478.53;;;-142.13;77.55
11712;BME280;5912;51.034;6.984;2023-04-07T07:31:44;56440.47;;;-142.13;77.39
11712;BME280;5912;51.034;6.984;2023-04-07T07:34:09;56462.50;;;-142.13;77.79
11712;BME280;5912;51.034;6.984;2023-04-07T07:36:35;56472.50;;;-142.13;77.48
11712;BME280;5912;51.034;6.984;2023-04-07T07:39:00;56458.50;;;-142.13;77.06
11712;BME280;5912;51.034;6.984;2023-04-07T07:41:25;56456.50;;;-142.13;77.11
11712;BME280;5912;51.034;6.984;2023-04-07T07:43:51;56464.50;;;-142.13;77.16
11712;BME280;5912;51.034;6.984;2023-04-07T07:46:17;56464.50;;;-142.13;76.91
11712;BME280;5912;51.034;6.984;2023-04-07T07:48:42;56436.47;;;-142.13;76.76
11712;BME280;5912;51.034;6.984;2023-04-07T07:51:07;56462.50;;;-142.13;76.74
11712;BME280;5912;51.034;6.984;2023-04-07T07:53:32;56452.47;;;-142.13;76.62
11712;BME280;5912;51.034;6.984;2023-04-07T07:55:58;56420.44;;;-142.13;76.76
11712;BME280;5912;51.034;6.984;2023-04-07T07:58:23;56460.50;;;-142.13;76.42
11712;BME280;5912;51.034;6.984;2023-04-07T08:00:48;56472.50;;;-142.13;76.28
11712;BME280;5912;51.034;6.984;2023-04-07T08:03:15;56458.50;;;-142.13;76.21
11712;BME280;5912;51.034;6.984;2023-04-07T08:05:40;56440.47;;;-142.13;75.99
11712;BME280;5912;51.034;6.984;2023-04-07T08:08:06;56468.50;;;-142.13;75.92
11712;BME280;5912;51.034;6.984;2023-04-07T08:10:32;56436.47;;;-142.13;76.15
11712;BME280;5912;51.034;6.984;2023-04-07T08:12:57;56428.44;;;-142.13;76.04
11712;BME280;5912;51.034;6.984;2023-04-07T08:15:22;56448.47;;;-142.13;75.55
11712;BME280;5912;51.034;6.984;2023-04-07T08:17:48;56444.47;;;-142.13;75.41
11712;BME280;5912;51.034;6.984;2023-04-07T08:20:13;56448.47;;;-142.13;75.56
11712;BME280;5912;51.034;6.984;2023-04-07T08:22:38;56460.50;;;-142.13;75.27
11712;BME280;5912;51.034;6.984;2023-04-07T08:25:04;56460.50;;;-142.13;74.95
11712;BME280;5912;51.034;6.984;2023-04-07T08:27:29;56460.50;;;-142.13;74.87
11712;BME280;5912;51.034;6.984;2023-04-07T08:30:00;56456.50;;;-142.13;74.51
11712;BME280;5912;51.034;6.984;2023-04-07T08:32:39;56586.69;;;-142.13;74.78
11712;BME280;5912;51.034;6.984;2023-04-07T08:35:05;56430.44;;;-142.13;74.94
11712;BME280;5912;51.034;6.984;2023-04-07T08:37:32;56458.50;;;-142.13;74.79
11712;BME280;5912;51.034;6.984;2023-04-07T08:39:58;56422.44;;;-142.13;74.88
11712;BME280;5912;51.034;6.984;2023-04-07T08:42:27;56444.47;;;-142.13;74.17
11712;BME280;5912;51.034;6.984;2023-04-07T08:44:55;56454.47;;;-142.13;73.96
11712;BME280;5912;51.034;6.984;2023-04-07T08:47:24;56588.69;;;-142.13;73.75
11712;BME280;5912;51.034;6.984;2023-04-07T08:49:52;56432.44;;;-142.13;73.73
11712;BME280;5912;51.034;6.984;2023-04-07T08:52:21;56434.44;;;-142.13;73.90
11712;BME280;5912;51.034;6.984;2023-04-07T08:54:48;56426.44;;;-142.13;73.52
11712;BME280;5912;51.034;6.984;2023-04-07T08:57:13;56450.47;;;-142.13;73.86
11712;BME280;5912;51.034;6.984;2023-04-07T08:59:41;56426.44;;;-142.13;74.01
11712;BME280;5912;51.034;6.984;2023-04-07T09:02:09;56410.41;;;-142.13;74.01
11712;BME280;5912;51.034;6.984;2023-04-07T09:04:35;56408.41;;;-142.13;73.38
11712;BME280;5912;51.034;6.984;2023-04-07T09:07:00;56400.41;;;-142.13;72.71
11712;BME280;5912;51.034;6.984;2023-04-07T09:09:26;56432.44;;;-142.13;72.78
11712;BME280;5912;51.034;6.984;2023-04-07T09:11:51;56360.34;;;-142.13;71.55
11712;BME280;5912;51.034;6.984;2023-04-07T09:14:17;56382.38;;;-142.13;71.26
11712;BME280;5912;51.034;6.984;2023-04-07T09:16:45;56388.38;;;-142.13;71.38
11712;BME280;5912;51.034;6.984;2023-04-07T09:19:10;56428.44;;;-142.13;70.67
11712;BME280;5912;51.034;6.984;2023-04-07T09:21:49;56358.34;;;-142.13;70.72
11712;BME280;5912;51.034;6.984;2023-04-07T09:24:23;56424.44;;;-142.13;70.63
11712;BME280;5912;51.034;6.984;2023-04-07T09:27:21;56392.38;;;-142.13;70.40
11712;BME280;5912;51.034;6.984;2023-04-07T09:29:47;56408.41;;;-142.13;69.90
11712;BME280;5912;51.034;6.984;2023-04-07T09:32:36;56400.41;;;-142.13;70.13
11712;BME280;5912;51.034;6.984;2023-04-07T09:35:05;56404.41;;;-142.13;69.99
11712;BME280;5912;51.034;6.984;2023-04-07T09:37:31;56416.44;;;-142.13;69.97
11712;BME280;5912;51.034;6.984;2023-04-07T09:39:56;56388.38;;;-142.13;69.88
11712;BME280;5912;51.034;6.984;2023-04-07T09:42:22;56386.38;;;-142.13;69.74
11712;BME280;5912;51.034;6.984;2023-04-07T09:44:47;56398.41;;;-142.13;69.72
11712;BME280;5912;51.034;6.984;2023-04-07T09:47:12;56412.41;;;-142.13;70.37
11712;BME280;5912;51.034;6.984;2023-04-07T09:49:51;56392.38;;;-142.13;70.52
11712;BME280;5912;51.034;6.984;2023-04-07T09:52:18;56388.38;;;-142.13;70.23
11712;BME280;5912;51.034;6.984;2023-04-07T09:54:45;56410.41;;;-142.13;69.90
11712;BME280;5912;51.034;6.984;2023-04-07T09:57:11;56404.41;;;-142.13;69.85
11712;BME280;5912;51.034;6.984;2023-04-07T09:59:39;56390.38;;;-142.13;69.13
11712;BME280;5912;51.034;6.984;2023-04-07T10:02:07;56386.38;;;-142.13;68.68
11712;BME280;5912;51.034;6.984;2023-04-07T10:04:33;56396.41;;;-142.13;68.88
11712;BME280;5912;51.034;6.984;2023-04-07T10:06:59;56404.41;;;-142.13;69.69
11712;BME280;5912;51.034;6.984;2023-04-07T10:09:28;56410.41;;;-142.13;69.74
11712;BME280;5912;51.034;6.984;2023-04-07T10:11:55;56432.44;;;-142.13;69.81
11712;BME280;5912;51.034;6.984;2023-04-07T10:14:22;56376.34;;;-142.13;69.78
11712;BME280;5912;51.034;6.984;2023-04-07T10:16:48;56396.41;;;-142.13;69.99
11712;BME280;5912;51.034;6.984;2023-04-07T10:19:16;56398.41;;;-142.13;69.95
11712;BME280;5912;51.034;6.984;2023-04-07T10:21:43;56392.38;;;-142.13;69.57
11712;BME280;5912;51.034;6.984;2023-04-07T10:24:34;56412.41;;;-142.13;68.73
11712;BME280;5912;51.034;6.984;2023-04-07T10:27:05;56420.44;;;-142.13;69.42
11712;BME280;5912;51.034;6.984;2023-04-07T10:29:40;56392.38;;;-142.13;70.34
11712;BME280;5912;51.034;6.984;2023-04-07T10:32:06;56396.41;;;-142.13;70.60
11712;BME280;5912;51.034;6.984;2023-04-07T10:35:01;56388.38;;;-142.13;70.70
11712;BME280;5912;51.034;6.984;2023-04-07T10:37:26;56384.38;;;-142.13;69.78
11712;BME280;5912;51.034;6.984;2023-04-07T10:42:44;56404.41;;;-142.13;69.94
11712;BME280;5912;51.034;6.984;2023-04-07T10:45:11;56386.38;;;-142.13;69.27
11712;BME280;5912;51.034;6.984;2023-04-07T10:50:27;56380.38;;;-142.13;68.62
11712;BME280;5912;51.034;6.984;2023-04-07T10:53:12;56384.38;;;-142.13;67.91
11712;BME280;5912;51.034;6.984;2023-04-07T10:55:39;56348.31;;;-142.13;68.30
11712;BME280;5912;51.034;6.984;2023-04-07T11:03:40;56378.38;;;-142.13;68.10
11712;BME280;5912;51.034;6.984;2023-04-07T11:06:11;56346.31;;;-142.13;67.91
11712;BME280;5912;51.034;6.984;2023-04-07T11:11:07;56342.31;;;-142.13;67.05
11712;BME280;5912;51.034;6.984;2023-04-07T11:13:45;56370.34;;;-142.13;66.33
11712;BME280;5912;51.034;6.984;2023-04-07T11:16:12;56360.34;;;-142.13;66.18
11712;BME280;5912;51.034;6.984;2023-04-07T11:18:39;56314.25;;;-142.13;66.03
11712;BME280;5912;51.034;6.984;2023-04-07T11:21:05;56320.28;;;-142.13;65.14
11712;BME280;5912;51.034;6.984;2023-04-07T11:23:39;56354.31;;;-142.13;64.93
11712;BME280;5912;51.034;6.984;2023-04-07T11:26:06;56360.34;;;-142.13;64.47
11712;BME280;5912;51.034;6.984;2023-04-07T11:28:32;56352.31;;;-142.13;65.43
11712;BME280;5912;51.034;6.984;2023-04-07T11:30:58;56402.41;;;-142.13;65.35
11712;BME280;5912;51.034;6.984;2023-04-07T11:33:26;56364.34;;;-142.13;66.10
11712;BME280;5912;51.034;6.984;2023-04-07T11:35:54;56356.31;;;-142.13;66.33
11712;BME280;5912;51.034;6.984;2023-04-07T11:38:21;56336.28;;;-142.13;66.52
11712;BME280;5912;51.034;6.984;2023-04-07T11:40:48;56330.28;;;-142.13;66.01
11712;BME280;5912;51.034;6.984;2023-04-07T11:43:18;56368.34;;;-142.13;65.51
11712;BME280;5912;51.034;6.984;2023-04-07T11:45:44;56340.31;;;-142.13;64.75
11712;BME280;5912;51.034;6.984;2023-04-07T11:48:25;56340.31;;;-142.13;64.93
11712;BME280;5912;51.034;6.984;2023-04-07T11:50:51;56362.34;;;-142.13;64.68
11712;BME280;5912;51.034;6.984;2023-04-07T11:53:38;56370.34;;;-142.13;65.70
11712;BME280;5912;51.034;6.984;2023-04-07T11:56:08;56380.38;;;-142.13;66.42
11712;BME280;5912;51.034;6.984;2023-04-07T11:58:37;56420.44;;;-142.13;66.78
11712;BME280;5912;51.034;6.984;2023-04-07T12:01:04;56400.41;;;-142.13;67.40
11712;BME280;5912;51.034;6.984;2023-04-07T12:03:34;56372.34;;;-142.13;67.46
11712;BME280;5912;51.034;6.984;2023-04-07T12:06:01;56368.34;;;-142.13;66.98
11712;BME280;5912;51.034;6.984;2023-04-07T12:08:40;56372.34;;;-142.13;65.35
11712;BME280;5912;51.034;6.984;2023-04-07T12:11:05;56410.41;;;-142.13;65.82
11712;BME280;5912;51.034;6.984;2023-04-07T12:13:32;56368.34;;;-142.13;64.66
11712;BME280;5912;51.034;6.984;2023-04-07T12:15:58;56310.25;;;-142.13;63.16
11712;BME280;5912;51.034;6.984;2023-04-07T12:18:24;56318.25;;;-142.13;60.53
11712;BME280;5912;51.034;6.984;2023-04-07T12:20:49;56286.22;;;-142.13;60.08
11712;BME280;5912;51.034;6.984;2023-04-07T12:23:15;56282.22;;;-142.13;60.57
11712;BME280;5912;51.034;6.984;2023-04-07T12:25:40;56316.25;;;-142.13;57.89
11712;BME280;5912;51.034;6.984;2023-04-07T12:28:06;56316.25;;;-142.13;58.02
11712;BME280;5912;51.034;6.984;2023-04-07T12:30:31;56318.25;;;-142.13;57.74
11712;BME280;5912;51.034;6.984;2023-04-07T12:32:57;56308.25;;;-142.13;56.88
11712;BME280;5912;51.034;6.984;2023-04-07T12:35:22;56302.25;;;-142.13;56.77
11712;BME280;5912;51.034;6.984;2023-04-07T12:37:48;56312.25;;;-142.13;59.26
11712;BME280;5912;51.034;6.984;2023-04-07T12:40:13;56308.25;;;-142.13;58.71
11712;BME280;5912;51.034;6.984;2023-04-07T12:42:40;56320.28;;;-142.13;59.85
11712;BME280;5912;51.034;6.984;2023-04-07T12:45:06;56328.28;;;-142.13;61.07
11712;BME280;5912;51.034;6.984;2023-04-07T12:47:31;56348.31;;;-142.13;61.57
11712;BME280;5912;51.034;6.984;2023-04-07T12:49:58;56328.28;;;-142.13;61.48
11712;BME280;5912;51.034;6.984;2023-04-07T12:52:23;56332.28;;;-142.13;60.77
11712;BME280;5912;51.034;6.984;2023-04-07T12:54:48;56318.25;;;-142.13;59.96
11712;BME280;5912;51.034;6.984;2023-04-07T12:57:14;56298.22;;;-142.13;58.09
11712;BME280;5912;51.034;6.984;2023-04-07T12:59:40;56304.25;;;-142.13;57.32
11712;BME280;5912;51.034;6.984;2023-04-07T13:02:06;56292.22;;;-142.13;56.17
11712;BME280;5912;51.034;6.984;2023-04-07T13:04:32;56284.22;;;-142.13;56.72
11712;BME280;5912;51.034;6.984;2023-04-07T13:06:59;56298.22;;;-142.13;57.38
11712;BME280;5912;51.034;6.984;2023-04-07T13:09:26;56304.25;;;-142.13;58.35